Time;durP1;ratioP1;P1;durP2;ratioP2;P2;SDS_P1;SDS_P2;PMS_P1;PMS_P2;Temp;Humidity;BMP_temperature;BMP_pressure;BME280_temperature;BME280_humidity;BME280_pressure;Samples;Min_cycle;Max_cycle;Signal;HPM_P1;HPM_P2
2022/07/15 04:01:28;;;;;;;3.80;3.50;;;18.70;74.10;;;;;;5501858;23;21034;-65
2022/07/15 04:03:54;;;;;;;4.20;3.73;;;18.70;74.90;;;;;;4997545;28;20464;-65
2022/07/15 04:06:21;;;;;;;4.73;3.93;;;18.70;75.40;;;;;;4997438;28;20512;-65
2022/07/15 04:08:49;;;;;;;4.93;3.50;;;18.70;75.40;;;;;;4997267;28;20465;-65
2022/07/15 04:11:16;;;;;;;3.90;3.50;;;18.70;75.90;;;;;;4996770;28;20976;-65
2022/07/15 04:13:42;;;;;;;3.53;3.00;;;18.70;76.10;;;;;;4997541;28;20461;-66
2022/07/15 04:16:11;;;;;;;3.50;3.20;;;18.70;76.20;;;;;;4998214;28;20461;-65
2022/07/15 04:18:39;;;;;;;4.43;2.97;;;18.80;76.60;;;;;;4996669;28;20458;-66
2022/07/15 04:21:06;;;;;;;7.10;3.83;;;18.80;76.30;;;;;;4997401;28;20470;-67
2022/07/15 04:23:33;;;;;;;3.17;2.80;;;18.80;76.10;;;;;;4997589;28;20453;-66
2022/07/15 04:26:00;;;;;;;4.60;3.10;;;18.80;76.70;;;;;;4997619;28;20469;-65
2022/07/15 04:28:27;;;;;;;3.77;2.80;;;18.90;76.50;;;;;;4996560;28;20948;-65
2022/07/15 04:30:54;;;;;;;3.43;3.13;;;18.80;76.50;;;;;;4997278;28;20488;-65
2022/07/15 04:33:21;;;;;;;5.27;2.87;;;18.80;77.00;;;;;;4996997;28;20807;-66
2022/07/15 04:35:49;;;;;;;3.37;3.07;;;18.80;77.30;;;;;;4996865;28;20461;-66
2022/07/15 04:38:16;;;;;;;6.33;3.60;;;18.80;77.40;;;;;;4996545;28;20454;-66
2022/07/15 04:40:43;;;;;;;4.70;3.37;;;18.90;78.20;;;;;;4995225;28;20840;-65
2022/07/15 04:43:10;;;;;;;3.27;3.03;;;18.90;78.70;;;;;;4995974;28;20454;-66
2022/07/15 04:45:36;;;;;;;2.80;2.70;;;18.80;79.30;;;;;;4996350;28;20461;-65
2022/07/15 04:50:45;;;;;;;4.73;3.70;;;18.90;79.60;;;;;;4996406;28;20462;-65
2022/07/15 04:50:51;;;;;;;4.00;3.47;;;18.90;80.50;;;;;;4996480;28;20482;-64
2022/07/15 04:53:18;;;;;;;4.53;4.13;;;18.90;80.40;;;;;;4996253;28;20453;-64
2022/07/15 04:55:46;;;;;;;4.20;3.40;;;19.00;80.70;;;;;;4996328;28;20480;-65
2022/07/15 04:58:14;;;;;;;4.43;3.30;;;19.00;81.70;;;;;;4996069;28;21000;-65
2022/07/15 05:00:41;;;;;;;3.40;3.00;;;19.00;80.80;;;;;;4995854;28;20513;-65
2022/07/15 05:03:08;;;;;;;7.00;3.73;;;19.00;81.50;;;;;;4995983;28;20461;-66
2022/07/15 05:05:35;;;;;;;3.13;2.90;;;19.10;91.60;;;;;;4995702;28;20465;-66
2022/07/15 05:08:03;;;;;;;2.73;2.53;;;19.10;97.70;;;;;;4996024;28;20462;-66
2022/07/15 05:10:30;;;;;;;5.43;3.10;;;19.10;93.90;;;;;;4995577;28;20993;-66
2022/07/15 05:12:57;;;;;;;2.90;2.70;;;19.20;91.80;;;;;;4995919;28;20458;-66
2022/07/15 05:15:24;;;;;;;3.27;2.97;;;19.20;91.00;;;;;;4995911;28;20464;-66
2022/07/15 05:17:51;;;;;;;3.37;3.07;;;19.40;95.20;;;;;;4995882;28;20457;-65
2022/07/15 05:20:17;;;;;;;3.10;2.80;;;19.40;92.00;;;;;;4995662;28;20863;-64
2022/07/15 05:22:44;;;;;;;3.93;3.07;;;19.50;89.10;;;;;;4995632;28;20501;-64
2022/07/15 05:25:13;;;;;;;6.47;2.93;;;19.60;86.20;;;;;;4995305;28;20454;-64
2022/07/15 05:27:39;;;;;;;3.03;2.83;;;19.80;85.30;;;;;;4995722;28;20457;-65
2022/07/15 05:30:08;;;;;;;3.40;2.40;;;19.80;84.40;;;;;;4995322;28;20454;-65
2022/07/15 05:32:34;;;;;;;4.93;2.70;;;19.90;83.20;;;;;;4995559;28;20532;-65
2022/07/15 05:35:01;;;;;;;2.60;2.40;;;20.00;83.00;;;;;;4995384;28;20453;-64
2022/07/15 05:37:28;;;;;;;2.67;2.40;;;20.10;81.60;;;;;;4995462;28;20460;-64
2022/07/15 05:39:56;;;;;;;7.33;3.20;;;20.20;81.80;;;;;;4995346;28;20458;-65
2022/07/15 05:42:24;;;;;;;4.90;3.13;;;20.30;80.40;;;;;;4995585;28;20483;-65
2022/07/15 05:44:51;;;;;;;3.10;2.70;;;20.30;81.20;;;;;;4995255;28;20453;-65
2022/07/15 05:47:18;;;;;;;3.50;3.20;;;20.40;79.80;;;;;;4995453;28;20468;-65
2022/07/15 05:49:45;;;;;;;2.93;2.73;;;20.50;78.60;;;;;;4995497;28;20458;-65
2022/07/15 05:52:12;;;;;;;2.90;2.70;;;20.60;79.50;;;;;;4994851;28;20482;-64
2022/07/15 05:54:39;;;;;;;7.90;3.00;;;20.70;78.70;;;;;;4995267;28;20460;-65
2022/07/15 05:57:05;;;;;;;5.07;2.70;;;20.70;75.70;;;;;;4995232;28;20476;-64
2022/07/15 05:59:34;;;;;;;3.73;2.80;;;20.70;75.90;;;;;;4994867;28;20453;-64
2022/07/15 06:02:00;;;;;;;4.13;3.27;;;20.90;76.70;;;;;;4998426;28;20481;-65
2022/07/15 06:04:27;;;;;;;4.80;2.80;;;21.00;77.30;;;;;;5010213;28;20477;-65
2022/07/15 06:06:54;;;;;;;11.47;3.67;;;20.90;76.60;;;;;;5011226;28;20450;-64
2022/07/15 06:09:21;;;;;;;4.13;2.87;;;21.00;77.10;;;;;;4996178;28;20516;-65
2022/07/15 06:11:48;;;;;;;4.50;3.23;;;21.00;77.90;;;;;;4995031;28;20482;-65
2022/07/15 06:14:14;;;;;;;4.03;3.10;;;21.10;78.60;;;;;;4997094;28;20438;-66
2022/07/15 06:16:43;;;;;;;4.50;2.50;;;21.30;77.00;;;;;;4995390;28;20861;-66
2022/07/15 06:19:10;;;;;;;4.70;2.33;;;21.40;76.60;;;;;;4994987;28;20454;-66
2022/07/15 06:21:37;;;;;;;3.83;3.33;;;21.40;74.80;;;;;;4997227;28;20844;-66
2022/07/15 06:24:04;;;;;;;5.27;2.63;;;21.60;74.60;;;;;;5013766;28;20472;-66
2022/07/15 06:26:31;;;;;;;3.20;2.47;;;21.80;73.80;;;;;;5012396;28;20454;-66
2022/07/15 06:28:57;;;;;;;2.60;2.40;;;21.90;70.60;;;;;;4998974;28;20457;-66
2022/07/15 06:31:24;;;;;;;3.17;2.23;;;22.00;69.80;;;;;;4994786;28;20477;-66
2022/07/15 06:33:52;;;;;;;2.30;2.10;;;22.20;68.90;;;;;;4994893;28;20949;-66
2022/07/15 06:36:19;;;;;;;2.80;2.07;;;22.40;69.90;;;;;;4994900;28;20458;-66
2022/07/15 06:38:49;;;;;;;4.07;2.37;;;22.50;75.20;;;;;;4994789;28;20453;-66
2022/07/15 06:41:16;;;;;;;1.90;1.80;;;22.50;72.10;;;;;;4994906;28;20580;-66
2022/07/15 06:43:43;;;;;;;4.33;2.33;;;22.70;70.60;;;;;;4996686;28;20983;-66
2022/07/15 06:46:10;;;;;;;8.00;2.53;;;23.00;78.10;;;;;;4996087;28;20438;-66
2022/07/15 06:48:39;;;;;;;2.80;2.00;;;23.30;71.60;;;;;;4994550;28;20457;-66
2022/07/15 06:51:07;;;;;;;4.90;2.00;;;23.50;71.10;;;;;;4994119;28;20572;-66
2022/07/15 06:53:34;;;;;;;4.77;1.90;;;23.80;70.30;;;;;;4993983;28;20453;-66
2022/07/15 06:56:01;;;;;;;2.80;1.73;;;23.90;66.20;;;;;;4994922;28;20454;-66
2022/07/15 06:58:27;;;;;;;7.17;2.20;;;24.20;65.20;;;;;;4994399;28;20477;-66
2022/07/15 07:00:54;;;;;;;2.10;1.77;;;24.60;64.50;;;;;;4995006;28;21032;-66
2022/07/15 07:03:21;;;;;;;6.63;2.00;;;25.20;58.90;;;;;;4994170;28;20458;-66
2022/07/15 07:05:48;;;;;;;3.07;1.80;;;25.50;60.80;;;;;;4997217;28;20853;-66
2022/07/15 07:08:16;;;;;;;4.50;2.00;;;26.00;62.60;;;;;;4998217;28;20467;-66
2022/07/15 07:10:43;;;;;;;4.50;1.80;;;26.70;59.50;;;;;;4998206;28;20477;-66
2022/07/15 07:13:10;;;;;;;2.90;1.83;;;27.30;57.60;;;;;;4997807;28;20999;-66
2022/07/15 07:15:36;;;;;;;1.60;1.50;;;27.60;56.60;;;;;;4998000;28;20454;-66
2022/07/15 07:18:03;;;;;;;4.80;1.70;;;28.00;55.60;;;;;;4998135;28;20460;-67
2022/07/15 07:20:30;;;;;;;3.50;2.00;;;28.40;53.80;;;;;;5001384;28;20460;-66
2022/07/15 07:22:57;;;;;;;3.57;2.10;;;28.50;53.70;;;;;;5005541;28;20446;-66
2022/07/15 07:25:25;;;;;;;4.33;2.40;;;28.80;54.30;;;;;;5005852;28;20468;-66
2022/07/15 07:27:52;;;;;;;3.50;2.60;;;29.00;53.70;;;;;;4998016;28;20504;-67
2022/07/15 07:30:19;;;;;;;3.30;2.00;;;29.30;52.00;;;;;;4997883;28;20453;-66
2022/07/15 07:32:45;;;;;;;3.77;1.70;;;29.70;51.90;;;;;;4997932;28;20532;-66
2022/07/15 07:35:12;;;;;;;4.77;2.43;;;29.90;50.50;;;;;;4997799;28;20453;-66
2022/07/15 07:37:40;;;;;;;2.90;1.90;;;29.90;49.90;;;;;;4997530;28;20941;-66
2022/07/15 07:40:08;;;;;;;1.90;1.80;;;30.40;46.90;;;;;;4997680;28;20481;-66
2022/07/15 07:42:36;;;;;;;3.50;2.63;;;30.60;46.90;;;;;;4997401;28;20829;-66
2022/07/15 07:45:03;;;;;;;2.07;1.97;;;30.60;46.30;;;;;;4997566;28;20889;-66
2022/07/15 07:47:31;;;;;;;3.17;1.67;;;31.00;45.40;;;;;;4997480;28;20454;-66
2022/07/15 07:49:58;;;;;;;2.00;1.80;;;31.30;44.20;;;;;;4997288;28;20454;-67
2022/07/15 07:52:25;;;;;;;3.17;2.03;;;31.30;45.70;;;;;;4997077;28;20477;-67
2022/07/15 07:54:52;;;;;;;5.23;1.90;;;31.50;46.90;;;;;;4997378;28;20465;-67
2022/07/15 07:57:18;;;;;;;2.97;1.87;;;31.60;44.60;;;;;;5002626;28;20464;-67
2022/07/15 07:59:46;;;;;;;2.20;1.77;;;31.60;43.70;;;;;;5014552;28;20460;-66
2022/07/15 08:02:14;;;;;;;3.10;1.80;;;31.70;44.30;;;;;;5014780;28;20501;-66
2022/07/15 08:04:41;;;;;;;2.20;1.90;;;31.60;45.60;;;;;;5016058;28;20454;-66
2022/07/15 08:07:07;;;;;;;3.30;2.23;;;32.00;43.60;;;;;;5015204;28;20492;-66
2022/07/15 08:09:34;;;;;;;1.63;1.53;;;32.40;43.80;;;;;;5008366;28;20441;-67
2022/07/15 08:12:01;;;;;;;2.10;1.80;;;32.50;43.40;;;;;;4997292;28;20481;-67
2022/07/15 08:14:28;;;;;;;2.40;2.13;;;32.60;44.20;;;;;;4997898;28;20480;-66
2022/07/15 08:16:57;;;;;;;4.03;2.13;;;32.70;42.40;;;;;;4997912;28;20453;-66
2022/07/15 08:19:23;;;;;;;3.33;1.80;;;32.70;43.20;;;;;;4999075;28;20805;-66
2022/07/15 08:21:50;;;;;;;2.10;1.90;;;32.60;42.20;;;;;;4998091;28;20469;-66
2022/07/15 08:24:17;;;;;;;4.83;2.40;;;32.80;42.40;;;;;;4997874;28;20808;-66
2022/07/15 08:26:44;;;;;;;2.63;2.20;;;32.90;42.80;;;;;;4998504;28;20458;-65
2022/07/15 08:29:11;;;;;;;2.80;1.53;;;33.10;41.50;;;;;;4998622;28;20450;-65
2022/07/15 08:31:38;;;;;;;5.77;1.60;;;33.40;41.20;;;;;;4997209;28;20477;-66
2022/07/15 08:34:07;;;;;;;3.30;1.50;;;33.50;40.40;;;;;;4997388;28;20453;-66
2022/07/15 08:36:34;;;;;;;2.50;2.20;;;33.60;41.10;;;;;;4997425;28;20460;-66
2022/07/15 08:39:01;;;;;;;5.50;1.97;;;33.50;41.70;;;;;;4997062;28;20457;-65
2022/07/15 08:41:28;;;;;;;4.80;1.90;;;33.50;40.90;;;;;;4996929;28;20484;-66
2022/07/15 08:43:55;;;;;;;1.90;1.80;;;33.90;39.60;;;;;;4996861;28;20464;-65
2022/07/15 08:46:26;;;;;;;2.90;1.70;;;34.20;40.50;;;;;;4996750;28;20454;-66
2022/07/15 08:48:54;;;;;;;3.00;2.43;;;34.50;39.20;;;;;;4996640;28;20437;-65
2022/07/15 08:51:24;;;;;;;4.60;2.47;;;34.50;41.00;;;;;;4997188;28;20500;-66
2022/07/15 08:53:52;;;;;;;4.90;1.77;;;34.60;38.30;;;;;;4997281;28;20519;-66
2022/07/15 08:56:19;;;;;;;2.10;1.80;;;34.80;38.80;;;;;;4996798;28;20453;-66
2022/07/15 08:58:46;;;;;;;4.90;2.17;;;34.90;39.10;;;;;;4996803;28;20544;-64
2022/07/15 09:01:13;;;;;;;2.73;2.17;;;34.80;38.30;;;;;;4996424;28;20924;-65
2022/07/15 09:03:40;;;;;;;2.63;1.60;;;34.90;39.60;;;;;;4996447;28;20453;-66
2022/07/15 09:06:07;;;;;;;6.13;1.77;;;34.70;38.90;;;;;;4996245;28;20461;-66
2022/07/15 09:08:35;;;;;;;4.57;2.27;;;34.90;39.20;;;;;;4995915;28;20453;-66
2022/07/15 09:11:02;;;;;;;3.60;1.80;;;35.10;37.70;;;;;;4995788;28;20481;-66
2022/07/15 09:13:31;;;;;;;4.03;1.40;;;34.90;38.20;;;;;;4995842;28;20481;-66
2022/07/15 09:16:01;;;;;;;2.20;1.80;;;35.10;38.00;;;;;;4995681;28;20453;-66
2022/07/15 09:18:29;;;;;;;3.13;2.03;;;34.40;38.20;;;;;;4995916;28;20449;-66
2022/07/15 09:20:57;;;;;;;3.00;1.80;;;34.60;39.00;;;;;;4995981;28;20883;-66
2022/07/15 09:23:30;;;;;;;4.10;2.17;;;34.60;39.00;;;;;;4995699;28;20457;-66
2022/07/15 09:26:00;;;;;;;2.23;2.03;;;34.90;38.90;;;;;;4995705;28;20441;-66
2022/07/15 09:28:41;;;;;;;3.40;1.80;;;35.00;38.00;;;;;;4994708;28;20464;-66
2022/07/15 09:33:59;;;;;;;3.20;1.63;;;35.10;36.70;;;;;;4995932;28;20463;-67
2022/07/15 09:36:28;;;;;;;3.03;2.23;;;34.40;37.30;;;;;;4995703;28;20442;-66
2022/07/15 09:38:56;;;;;;;3.80;1.83;;;34.70;38.40;;;;;;4995570;28;20519;-66
2022/07/15 09:41:32;;;;;;;3.73;1.80;;;35.00;37.30;;;;;;4995539;28;20473;-66
2022/07/15 09:44:02;;;;;;;4.20;1.97;;;34.80;36.70;;;;;;4995414;28;20433;-66
2022/07/15 09:46:39;;;;;;;5.13;2.10;;;34.40;36.90;;;;;;4995713;28;20453;-67
2022/07/15 09:49:06;;;;;;;3.10;2.00;;;34.00;39.00;;;;;;4995394;28;20499;-65
2022/07/15 09:51:44;;;;;;;7.27;2.00;;;33.70;37.90;;;;;;4995313;28;20477;-66
2022/07/15 09:54:13;;;;;;;2.40;2.07;;;33.80;38.60;;;;;;4995826;28;20465;-65
2022/07/15 09:56:41;;;;;;;5.30;2.23;;;33.50;38.70;;;;;;4995822;28;20454;-66
2022/07/15 09:59:08;;;;;;;4.97;2.50;;;32.60;39.60;;;;;;4995497;28;20453;-66
2022/07/15 10:01:36;;;;;;;4.10;2.00;;;31.80;40.20;;;;;;4994857;28;20576;-66
2022/07/15 10:04:03;;;;;;;4.03;2.33;;;30.80;41.80;;;;;;4999401;28;20504;-65
2022/07/15 10:06:30;;;;;;;3.40;2.43;;;30.30;43.10;;;;;;5000249;28;20453;-66
2022/07/15 10:08:59;;;;;;;3.13;2.77;;;30.00;45.20;;;;;;5000699;28;20444;-66
2022/07/15 10:11:26;;;;;;;3.97;2.30;;;30.40;43.60;;;;;;4995823;28;20536;-66
2022/07/15 10:14:47;;;;;;;4.37;2.30;;;30.60;43.20;;;;;;4994948;28;20478;-66
2022/07/15 10:17:44;;;;;;;3.70;1.70;;;31.50;41.20;;;;;;4995062;28;20445;-66
2022/07/15 10:20:43;;;;;;;2.63;2.07;;;32.10;41.50;;;;;;4994826;28;20785;-67
2022/07/15 10:23:22;;;;;;;3.20;2.47;;;32.30;40.60;;;;;;4983306;28;20454;-66
2022/07/15 10:26:01;;;;;;;1.97;1.83;;;32.80;41.70;;;;;;4995297;28;20441;-66
2022/07/15 10:28:38;;;;;;;5.50;2.33;;;33.40;40.10;;;;;;4995209;28;20442;-67
2022/07/15 10:31:18;;;;;;;5.43;2.23;;;33.80;40.10;;;;;;4994920;28;20484;-67
2022/07/15 10:34:19;;;;;;;3.77;2.10;;;34.10;38.90;;;;;;4994571;28;20968;-67
2022/07/15 10:37:02;;;;;;;3.10;2.07;;;34.00;39.70;;;;;;4994542;28;20492;-66
2022/07/15 10:39:47;;;;;;;3.10;2.30;;;33.70;40.20;;;;;;4995761;28;20461;-66
2022/07/15 10:42:14;;;;;;;8.47;2.43;;;33.30;39.40;;;;;;4998999;28;20527;-67
2022/07/15 10:44:51;;;;;;;3.33;2.30;;;33.20;41.20;;;;;;4998620;28;20460;-67
2022/07/15 10:47:20;;;;;;;3.13;2.50;;;33.50;41.40;;;;;;4998352;28;20848;-66
2022/07/15 10:49:48;;;;;;;2.30;2.10;;;34.00;40.30;;;;;;4998546;28;20449;-66
2022/07/15 10:52:17;;;;;;;3.50;2.20;;;34.30;39.40;;;;;;4998524;28;20511;-66
2022/07/15 10:54:48;;;;;;;4.00;2.10;;;34.40;39.20;;;;;;4999289;28;20496;-66
2022/07/15 10:57:18;;;;;;;5.57;2.10;;;34.70;39.80;;;;;;4999252;28;20437;-66
2022/07/15 10:59:53;;;;;;;3.47;2.53;;;35.00;39.40;;;;;;4999553;28;20460;-66
2022/07/15 11:02:24;;;;;;;4.10;2.57;;;35.40;38.70;;;;;;4998842;28;20484;-66
2022/07/15 11:04:52;;;;;;;2.13;1.97;;;35.60;39.30;;;;;;4999132;28;20489;-66
2022/07/15 11:07:21;;;;;;;3.53;2.30;;;35.90;38.60;;;;;;4998313;28;20457;-66
2022/07/15 11:09:50;;;;;;;2.57;2.37;;;35.30;38.40;;;;;;4998736;28;20484;-66
2022/07/15 11:12:18;;;;;;;3.60;2.80;;;35.20;39.30;;;;;;4998171;28;20533;-65
2022/07/15 11:14:52;;;;;;;2.80;2.60;;;35.50;40.40;;;;;;4999142;28;20468;-66
2022/07/15 11:17:24;;;;;;;3.40;2.40;;;35.60;39.40;;;;;;4998588;28;20437;-66
2022/07/15 11:19:54;;;;;;;2.73;2.20;;;35.80;38.70;;;;;;4998687;28;20524;-66
2022/07/15 11:22:23;;;;;;;6.57;2.10;;;36.00;38.80;;;;;;4998268;28;20539;-67
2022/07/15 11:24:49;;;;;;;2.47;2.23;;;35.30;38.10;;;;;;4998663;28;20456;-67
2022/07/15 11:27:16;;;;;;;4.57;2.33;;;34.30;39.30;;;;;;4998295;28;20452;-66
2022/07/15 11:29:45;;;;;;;6.20;2.70;;;33.70;39.70;;;;;;4998426;28;20462;-66
2022/07/15 11:32:14;;;;;;;2.93;2.23;;;33.30;39.10;;;;;;4997939;28;20473;-67
2022/07/15 11:39:16;;;;;;;3.23;2.57;;;32.00;42.40;;;;;;4996472;28;20507;-66
2022/07/15 11:49:13;;;;;;;3.53;2.43;;;31.30;43.70;;;;;;4670478;27;13083677;-64
2022/07/15 11:52:15;;;;;;;3.80;2.27;;;31.20;43.30;;;;;;5099661;28;20230;-65
2022/07/15 11:55:06;;;;;;;5.20;2.53;;;31.30;43.70;;;;;;5091425;28;20436;-65
2022/07/15 11:58:15;;;;;;;4.03;2.67;;;31.00;43.70;;;;;;5090100;28;20452;-65
2022/07/15 12:00:48;;;;;;;2.40;1.80;;;30.50;44.00;;;;;;5091054;28;20448;-65
2022/07/15 12:03:15;;;;;;;3.13;2.47;;;30.30;43.20;;;;;;5091974;28;20299;-65
2022/07/15 12:05:43;;;;;;;2.90;1.90;;;30.20;43.70;;;;;;5092559;28;20453;-66
2022/07/15 12:08:09;;;;;;;2.40;2.20;;;30.10;45.20;;;;;;5091607;28;20815;-65
2022/07/15 12:10:38;;;;;;;2.63;2.30;;;30.20;47.00;;;;;;5096753;28;20461;-66
2022/07/15 12:13:05;;;;;;;2.30;2.17;;;30.50;46.80;;;;;;5092247;28;20507;-65
2022/07/15 12:15:32;;;;;;;3.13;2.27;;;30.80;44.80;;;;;;5091654;28;20449;-65
2022/07/15 12:17:59;;;;;;;8.63;2.70;;;31.20;43.70;;;;;;5091686;28;20457;-65
2022/07/15 12:20:27;;;;;;;4.40;2.40;;;31.30;43.90;;;;;;5090974;28;20449;-66
2022/07/15 12:23:06;;;;;;;4.57;2.30;;;31.40;43.80;;;;;;5091672;28;20569;-66
2022/07/15 12:25:33;;;;;;;3.00;2.20;;;31.50;44.90;;;;;;5092099;28;20437;-65
2022/07/15 12:28:00;;;;;;;2.50;2.00;;;31.60;45.40;;;;;;5091748;28;20473;-66
2022/07/15 12:30:32;;;;;;;4.43;2.30;;;31.80;43.40;;;;;;5092075;28;20456;-66
2022/07/15 12:33:17;;;;;;;3.17;2.20;;;31.70;43.40;;;;;;5091262;28;20473;-66
2022/07/15 12:35:44;;;;;;;3.00;2.70;;;31.40;44.00;;;;;;5090945;28;20437;-65
2022/07/15 12:38:25;;;;;;;3.40;2.43;;;31.60;43.00;;;;;;5090532;28;20452;-65
2022/07/15 12:40:52;;;;;;;5.83;2.27;;;31.50;42.90;;;;;;5091003;28;20825;-66
2022/07/15 12:43:19;;;;;;;2.50;2.30;;;31.70;44.60;;;;;;5090509;28;20812;-65
2022/07/15 12:45:46;;;;;;;3.50;1.80;;;31.40;43.90;;;;;;5090851;28;20449;-66
2022/07/15 12:48:14;;;;;;;2.13;2.00;;;31.50;45.20;;;;;;5091335;28;20481;-66
2022/07/15 12:50:59;;;;;;;3.90;2.30;;;31.50;43.20;;;;;;5090922;28;20484;-66
2022/07/15 12:53:37;;;;;;;2.60;2.40;;;31.40;44.00;;;;;;5090944;28;20854;-66
2022/07/15 12:56:06;;;;;;;5.27;2.50;;;31.40;44.20;;;;;;5092083;28;20438;-65
2022/07/15 12:58:34;;;;;;;2.17;2.03;;;31.40;44.20;;;;;;5086722;28;20460;-66
2022/07/15 13:01:10;;;;;;;7.73;2.47;;;31.10;43.80;;;;;;5078523;28;20509;-65
2022/07/15 13:03:37;;;;;;;4.13;2.30;;;30.80;43.10;;;;;;5077445;28;20457;-66
2022/07/15 13:06:05;;;;;;;2.20;2.00;;;30.70;44.50;;;;;;5077614;28;20445;-67
2022/07/15 13:08:34;;;;;;;3.57;2.47;;;30.80;44.10;;;;;;5077404;28;20848;-66
2022/07/15 13:11:03;;;;;;;2.60;2.00;;;30.70;44.40;;;;;;5077878;28;20564;-65
2022/07/15 13:13:31;;;;;;;2.23;2.10;;;30.50;44.80;;;;;;5077766;28;20461;-66
2022/07/15 13:15:58;;;;;;;2.83;2.07;;;30.40;45.80;;;;;;5077488;28;20455;-66
2022/07/15 13:18:26;;;;;;;3.27;2.53;;;30.40;45.10;;;;;;5076319;28;20496;-66
2022/07/15 13:20:54;;;;;;;3.57;2.50;;;30.50;44.90;;;;;;5076811;28;20469;-66
2022/07/15 13:23:21;;;;;;;6.90;2.77;;;30.80;46.20;;;;;;5078047;28;20461;-66
2022/07/15 13:25:50;;;;;;;2.50;2.30;;;30.90;44.10;;;;;;5077159;28;20451;-66
2022/07/15 13:28:18;;;;;;;6.83;2.97;;;30.90;45.00;;;;;;5077237;28;20480;-66
2022/07/15 13:30:45;;;;;;;3.73;2.50;;;30.90;43.90;;;;;;5077158;28;20465;-66
2022/07/15 13:33:12;;;;;;;2.30;2.20;;;30.80;44.10;;;;;;5079265;28;20503;-65
2022/07/15 13:35:39;;;;;;;2.67;2.47;;;30.90;45.00;;;;;;5085804;28;20441;-65
2022/07/15 13:38:06;;;;;;;2.80;2.07;;;30.80;44.10;;;;;;5085123;28;20472;-66
2022/07/15 13:40:33;;;;;;;3.83;2.40;;;30.70;44.60;;;;;;5078826;28;20450;-65
2022/07/15 13:43:02;;;;;;;3.60;3.40;;;30.80;44.50;;;;;;5077361;28;20457;-65
2022/07/15 13:45:29;;;;;;;2.03;1.90;;;31.00;44.00;;;;;;5077916;28;20456;-65
2022/07/15 13:47:55;;;;;;;3.10;1.80;;;31.10;45.00;;;;;;5076342;28;21010;-66
2022/07/15 13:53:07;;;;;;;2.60;2.40;;;30.50;45.10;;;;;;5076267;28;20417;-66
2022/07/15 13:55:33;;;;;;;3.10;2.37;;;30.50;45.40;;;;;;5076281;28;20516;-66
2022/07/15 13:58:02;;;;;;;4.70;2.07;;;30.40;44.90;;;;;;5075857;28;20450;-65
2022/07/15 14:00:28;;;;;;;2.90;2.13;;;30.20;44.50;;;;;;5075204;28;20453;-65
2022/07/15 14:02:56;;;;;;;4.83;2.67;;;29.70;44.80;;;;;;5075716;28;20454;-65
2022/07/15 14:05:24;;;;;;;3.83;2.00;;;29.40;45.90;;;;;;5075572;28;20458;-65
2022/07/15 14:07:51;;;;;;;4.90;2.40;;;29.40;46.70;;;;;;5075295;28;20469;-65
2022/07/15 14:10:18;;;;;;;2.53;2.30;;;29.50;46.40;;;;;;5074686;28;20478;-67
2022/07/15 14:12:44;;;;;;;3.03;2.10;;;29.80;46.10;;;;;;5075611;28;20450;-66
2022/07/15 14:15:13;;;;;;;3.17;2.50;;;29.90;46.60;;;;;;5075007;28;20450;-66
2022/07/15 14:17:39;;;;;;;3.90;2.67;;;30.00;45.20;;;;;;5075212;28;20453;-65
2022/07/15 14:20:07;;;;;;;2.93;2.70;;;30.00;45.90;;;;;;5075273;28;20477;-65
2022/07/15 14:22:35;;;;;;;5.57;2.33;;;30.10;45.10;;;;;;5076226;28;20562;-65
2022/07/15 14:25:01;;;;;;;2.33;2.13;;;29.90;45.00;;;;;;5075186;28;20485;-65
2022/07/15 14:27:28;;;;;;;2.20;2.10;;;30.00;44.80;;;;;;5074663;28;21007;-65
2022/07/15 14:29:55;;;;;;;2.90;2.13;;;29.80;45.50;;;;;;5074838;28;20527;-66
2022/07/15 14:32:23;;;;;;;3.07;2.27;;;29.70;45.90;;;;;;5074749;28;20839;-66
2022/07/15 14:34:50;;;;;;;2.97;2.50;;;29.90;46.10;;;;;;5075863;28;20477;-65
2022/07/15 14:37:17;;;;;;;2.60;2.33;;;29.70;45.80;;;;;;5077574;28;20454;-66
2022/07/15 14:39:44;;;;;;;4.03;2.63;;;29.80;45.40;;;;;;5077218;28;20450;-66
2022/07/15 14:42:11;;;;;;;4.30;2.83;;;29.90;45.00;;;;;;5076147;28;20470;-65
2022/07/15 14:44:38;;;;;;;3.43;2.30;;;30.10;44.80;;;;;;5075229;28;20461;-66
2022/07/15 14:47:05;;;;;;;3.13;2.83;;;30.30;46.20;;;;;;5074509;28;20968;-66
2022/07/15 14:49:33;;;;;;;2.80;2.50;;;30.40;45.20;;;;;;5074875;28;20454;-66
2022/07/15 14:51:59;;;;;;;4.20;2.60;;;30.40;44.40;;;;;;5074567;28;20470;-65
2022/07/15 14:54:26;;;;;;;2.03;1.93;;;30.40;45.50;;;;;;5074567;28;20460;-65
2022/07/15 14:56:53;;;;;;;3.63;2.00;;;30.40;45.90;;;;;;5074388;28;20450;-65
2022/07/15 14:59:19;;;;;;;3.57;1.90;;;30.30;44.70;;;;;;5074157;28;20450;-65
2022/07/15 15:01:46;;;;;;;2.87;2.70;;;30.40;44.10;;;;;;5074219;28;20478;-65
2022/07/15 15:04:13;;;;;;;3.83;2.20;;;30.20;44.70;;;;;;5074454;28;20457;-65
2022/07/15 15:06:41;;;;;;;3.50;2.63;;;30.10;45.70;;;;;;5074265;28;20449;-65
2022/07/15 15:09:07;;;;;;;3.77;2.40;;;30.00;45.20;;;;;;5074444;28;20477;-65
2022/07/15 15:11:34;;;;;;;3.33;2.57;;;29.80;44.80;;;;;;5074565;28;20470;-65
2022/07/15 15:14:01;;;;;;;2.67;2.47;;;29.80;45.90;;;;;;5074628;28;20453;-66
2022/07/15 15:16:28;;;;;;;5.57;2.70;;;29.70;44.80;;;;;;5074795;28;20461;-66
2022/07/15 15:18:55;;;;;;;3.10;2.17;;;29.50;45.70;;;;;;5074205;28;20457;-65
2022/07/15 15:21:21;;;;;;;3.37;2.43;;;29.40;45.20;;;;;;5073954;28;20524;-65
2022/07/15 15:23:49;;;;;;;2.80;1.87;;;29.50;46.60;;;;;;5073759;28;20456;-66
2022/07/15 15:26:22;;;;;;;3.40;2.63;;;29.60;45.90;;;;;;5073790;28;20482;-66
2022/07/15 15:28:49;;;;;;;3.80;2.80;;;29.60;45.70;;;;;;5074127;28;20519;-65
2022/07/15 15:31:16;;;;;;;2.17;2.07;;;29.60;44.40;;;;;;5074113;28;20474;-66
2022/07/15 15:33:43;;;;;;;5.17;2.20;;;29.60;45.70;;;;;;5074222;28;20478;-66
2022/07/15 15:36:09;;;;;;;3.90;2.37;;;29.60;45.20;;;;;;5074170;28;20458;-65
2022/07/15 15:38:36;;;;;;;2.50;2.30;;;29.30;44.70;;;;;;5073434;28;20933;-65
2022/07/15 15:41:04;;;;;;;2.30;2.10;;;29.20;45.10;;;;;;5073181;28;20973;-65
2022/07/15 15:43:31;;;;;;;3.60;2.30;;;29.20;45.10;;;;;;5073875;28;20458;-65
2022/07/15 15:45:58;;;;;;;3.73;2.60;;;29.10;44.70;;;;;;5074009;28;20461;-65
2022/07/15 15:48:24;;;;;;;3.50;2.70;;;29.00;45.30;;;;;;5073607;28;20981;-65
2022/07/15 15:50:51;;;;;;;3.50;2.40;;;28.90;45.50;;;;;;5073808;28;20481;-65
2022/07/15 15:53:18;;;;;;;2.53;2.33;;;29.00;45.30;;;;;;5073641;28;20844;-66
2022/07/15 15:55:44;;;;;;;2.60;2.40;;;29.00;45.60;;;;;;5073830;28;20452;-65
2022/07/15 15:58:12;;;;;;;2.57;2.37;;;29.00;45.70;;;;;;5073754;28;20450;-65
2022/07/15 16:00:39;;;;;;;3.27;2.30;;;29.00;45.50;;;;;;5073613;28;20470;-65
2022/07/15 16:03:06;;;;;;;2.57;2.37;;;29.10;45.30;;;;;;5074150;28;20461;-65
2022/07/15 16:05:32;;;;;;;2.10;2.00;;;29.20;44.50;;;;;;5078226;28;20458;-65
2022/07/15 16:07:59;;;;;;;2.07;1.97;;;29.10;44.60;;;;;;5073710;28;20470;-65
2022/07/15 16:10:26;;;;;;;2.40;2.30;;;29.00;45.70;;;;;;5073251;28;20450;-65
2022/07/15 16:12:53;;;;;;;2.90;2.17;;;28.90;45.50;;;;;;5073709;28;20450;-65
2022/07/15 16:15:21;;;;;;;2.97;2.03;;;28.70;44.90;;;;;;5073418;28;20454;-66
2022/07/15 16:17:48;;;;;;;2.90;2.70;;;28.50;45.10;;;;;;5073512;28;20450;-65
2022/07/15 16:20:14;;;;;;;2.63;2.20;;;28.30;45.10;;;;;;5073387;28;20442;-66
2022/07/15 16:22:52;;;;;;;3.27;2.00;;;28.10;45.30;;;;;;5073237;28;20470;-65
2022/07/15 16:25:20;;;;;;;3.40;2.20;;;27.90;46.60;;;;;;5073394;28;20460;-65
2022/07/15 16:27:46;;;;;;;5.40;2.30;;;28.00;46.40;;;;;;5073151;28;20642;-65
2022/07/15 16:30:13;;;;;;;2.70;2.10;;;28.00;46.40;;;;;;5073288;28;20458;-66
2022/07/15 16:32:41;;;;;;;3.27;2.37;;;28.00;45.80;;;;;;5073342;28;20496;-65
2022/07/15 16:35:09;;;;;;;4.47;2.20;;;27.90;45.70;;;;;;5076223;28;20507;-65
2022/07/15 16:37:35;;;;;;;2.80;2.60;;;27.70;45.70;;;;;;5076701;28;20461;-65
2022/07/15 16:40:02;;;;;;;2.50;2.30;;;27.50;46.40;;;;;;5076412;28;20461;-65
2022/07/15 16:42:29;;;;;;;3.90;2.30;;;27.20;47.60;;;;;;5076945;28;20477;-65
2022/07/15 16:44:56;;;;;;;2.30;2.10;;;27.20;47.40;;;;;;5076750;28;20454;-65
2022/07/15 16:47:23;;;;;;;2.40;2.20;;;26.90;47.90;;;;;;5076598;28;21063;-65
2022/07/15 16:49:51;;;;;;;3.33;3.03;;;26.90;47.80;;;;;;5088999;28;20469;-65
2022/07/15 16:52:18;;;;;;;2.47;2.20;;;26.80;48.10;;;;;;5087930;28;20470;-67
2022/07/15 16:54:45;;;;;;;2.50;2.37;;;26.60;48.00;;;;;;5088388;28;20456;-65
2022/07/15 16:57:11;;;;;;;4.63;2.87;;;26.50;48.30;;;;;;5088219;28;20457;-65
2022/07/15 16:59:38;;;;;;;2.50;2.30;;;26.30;48.40;;;;;;5087920;28;20472;-65
2022/07/15 17:02:05;;;;;;;2.50;2.30;;;26.30;48.50;;;;;;5078339;28;20470;-65
2022/07/15 17:04:31;;;;;;;2.63;2.43;;;26.30;48.70;;;;;;5076686;28;20458;-65
2022/07/15 17:06:59;;;;;;;5.57;2.30;;;26.30;48.50;;;;;;5076687;28;20500;-65
2022/07/15 17:09:26;;;;;;;3.43;2.50;;;26.30;48.70;;;;;;5077300;28;20473;-66
2022/07/15 17:11:53;;;;;;;4.00;2.40;;;26.20;48.70;;;;;;5076084;28;20984;-66